Shrewsbury, Massachusetts
Current Conditions -  °F | °C
As of 5:54 AM on Thursday 23 Oct 2014 (Local Time) from KORH Reporting Station
Moderate Rain Moderate Rain  
Wind Chill: 36°   Ceiling: 500
Heat Index: 45°   Visibility: 3mi
Dew Point: 44°   Wind: 23mph
Humidity: 97%   Direction: 20°NNE
Pressure: 29.7"   Gusts: 33mph
Location:  42.3°N, 71.71°W
Report Text: KORH 230954Z AUTO 02020G29KT 3SM RA BR OVC005 07/07 A2970 RMK AO2 PK WND 02029/0907 SFC VIS 6 SLP062 P0005 T00720067
Loading
Personal Weather Stations






























Interactive Weather Map
Tropical Storm Tracking
New forecast layout! Learn more

10-Day Weather Forecast

Advertisements
Track Severe Weather on mobile